createdAt,value
2023-05-15T00:00:47.880Z,10.48
2023-05-15T00:03:16.485Z,10.02
2023-05-15T00:05:44.128Z,11.57
2023-05-15T00:08:11.389Z,10.00
2023-05-15T00:10:40.872Z,10.30
2023-05-15T00:13:10.141Z,10.20
2023-05-15T00:15:37.524Z,9.88
2023-05-15T00:18:04.926Z,9.40
2023-05-15T00:20:32.200Z,9.70
2023-05-15T00:22:59.468Z,10.20
2023-05-15T00:25:26.920Z,10.15
2023-05-15T00:27:54.277Z,11.27
2023-05-15T00:30:21.697Z,9.63
2023-05-15T00:32:49.025Z,11.02
2023-05-15T00:35:18.134Z,10.38
2023-05-15T00:37:45.470Z,10.90
2023-05-15T00:40:18.620Z,10.50
2023-05-15T00:42:47.106Z,11.02
2023-05-15T00:45:15.457Z,10.00
2023-05-15T00:47:43.658Z,9.75
2023-05-15T00:50:11.936Z,9.60
2023-05-15T00:52:39.270Z,9.85
2023-05-15T00:55:06.857Z,9.77
2023-05-15T00:57:35.092Z,9.30
2023-05-15T01:00:05.176Z,9.30
2023-05-15T01:02:32.761Z,9.73
2023-05-15T01:05:01.113Z,9.13
2023-05-15T01:07:35.531Z,8.90
2023-05-15T01:10:04.973Z,8.55
2023-05-15T01:12:34.065Z,8.88
2023-05-15T01:15:01.756Z,8.55
2023-05-15T01:17:29.371Z,8.68
2023-05-15T01:19:58.989Z,8.68
2023-05-15T01:22:55.404Z,8.75
2023-05-15T01:25:57.786Z,8.73
2023-05-15T01:28:39.920Z,7.97
2023-05-15T01:33:43.451Z,8.85
2023-05-15T01:36:19.289Z,9.15
2023-05-15T01:38:55.898Z,9.18
2023-05-15T01:41:27.328Z,8.63
2023-05-15T01:44:05.042Z,9.15
2023-05-15T01:46:36.901Z,8.73
2023-05-15T01:49:04.938Z,9.68
2023-05-15T01:51:33.461Z,9.77
2023-05-15T01:54:00.932Z,9.68
2023-05-15T01:56:29.619Z,9.90
2023-05-15T01:59:00.219Z,9.40
2023-05-15T02:01:31.065Z,8.95
2023-05-15T02:03:59.919Z,9.45
2023-05-15T02:06:29.048Z,8.48
2023-05-15T02:08:58.541Z,9.35
2023-05-15T02:11:26.281Z,8.70
2023-05-15T02:13:56.952Z,10.02
2023-05-15T02:16:24.663Z,9.00
2023-05-15T02:18:52.897Z,10.00
2023-05-15T02:21:20.678Z,9.07
2023-05-15T02:23:47.969Z,9.95
2023-05-15T02:26:29.852Z,9.73
2023-05-15T02:29:24.802Z,9.57
2023-05-15T02:32:10.755Z,9.23
2023-05-15T02:35:11.241Z,9.23
2023-05-15T02:37:40.253Z,9.15
2023-05-15T02:40:12.089Z,11.23
2023-05-15T02:42:41.870Z,9.48
2023-05-15T02:45:10.992Z,9.23
2023-05-15T02:47:39.927Z,9.18
2023-05-15T02:50:08.027Z,10.30
2023-05-15T02:52:35.829Z,10.32
2023-05-15T02:55:03.487Z,9.52
2023-05-15T02:57:30.876Z,9.77
2023-05-15T02:59:58.423Z,9.80
2023-05-15T03:02:25.793Z,9.80
2023-05-15T03:05:07.220Z,10.13
2023-05-15T03:07:34.542Z,9.90
2023-05-15T03:10:01.839Z,9.95
2023-05-15T03:12:29.146Z,10.27
2023-05-15T03:14:56.506Z,10.23
2023-05-15T03:17:31.265Z,11.05
2023-05-15T03:19:58.653Z,11.93
2023-05-15T03:22:25.963Z,11.30
2023-05-15T03:24:53.282Z,10.70
2023-05-15T03:27:20.781Z,11.15
2023-05-15T03:29:50.962Z,11.52
2023-05-15T03:32:18.390Z,11.70
2023-05-15T03:34:45.676Z,11.20
2023-05-15T03:37:13.037Z,11.00
2023-05-15T03:39:40.559Z,10.30
2023-05-15T03:42:07.864Z,11.77
2023-05-15T03:44:35.296Z,10.77
2023-05-15T03:47:02.653Z,11.13
2023-05-15T03:49:29.924Z,11.93
2023-05-15T03:51:57.901Z,11.80
2023-05-15T03:54:25.350Z,11.13
2023-05-15T03:56:53.526Z,11.35
2023-05-15T03:59:20.782Z,12.07
2023-05-15T04:02:02.930Z,12.02
2023-05-15T04:04:31.340Z,12.00
2023-05-15T04:06:58.733Z,12.75
2023-05-15T04:09:25.997Z,12.27
2023-05-15T04:11:53.379Z,12.15
2023-05-15T04:14:20.979Z,11.73
2023-05-15T04:16:48.434Z,11.07
2023-05-15T04:19:15.907Z,11.80
2023-05-15T04:21:43.268Z,12.73
2023-05-15T04:24:10.469Z,12.27
2023-05-15T04:26:38.019Z,11.30
2023-05-15T04:29:06.073Z,11.85
2023-05-15T04:31:35.257Z,10.90
2023-05-15T04:34:04.062Z,11.00
2023-05-15T04:36:31.916Z,10.93
2023-05-15T04:38:59.236Z,11.43
2023-05-15T04:41:26.824Z,10.40
2023-05-15T04:43:54.112Z,10.65
2023-05-15T04:46:21.640Z,11.57
2023-05-15T04:48:48.901Z,11.45
2023-05-15T04:51:16.193Z,10.90
2023-05-15T04:53:43.424Z,11.63
2023-05-15T04:56:10.992Z,11.57
2023-05-15T04:58:38.283Z,11.95
2023-05-15T05:01:05.534Z,10.55
2023-05-15T05:03:32.969Z,12.07
2023-05-15T05:06:00.918Z,11.60
2023-05-15T05:08:28.209Z,11.15
2023-05-15T05:10:58.716Z,11.68
2023-05-15T05:13:26.099Z,11.75
2023-05-15T05:15:53.406Z,11.27
2023-05-15T05:18:20.757Z,12.02
2023-05-15T05:20:48.131Z,11.05
2023-05-15T05:23:15.378Z,10.43
2023-05-15T05:25:42.778Z,11.40
2023-05-15T05:28:10.027Z,12.38
2023-05-15T05:30:37.277Z,11.80
2023-05-15T05:33:04.604Z,12.18
2023-05-15T05:35:32.264Z,12.02
2023-05-15T05:37:59.537Z,12.40
2023-05-15T05:40:26.839Z,12.80
2023-05-15T05:42:54.576Z,11.95
2023-05-15T05:45:21.854Z,11.57
2023-05-15T05:47:49.325Z,12.07
2023-05-15T05:50:16.521Z,13.32
2023-05-15T05:52:43.739Z,12.27
2023-05-15T05:55:11.018Z,12.02
2023-05-15T05:57:38.269Z,12.57
2023-05-15T06:00:09.827Z,11.63
2023-05-15T06:02:38.435Z,12.13
2023-05-15T06:05:06.681Z,12.52
2023-05-15T06:07:35.250Z,11.60
2023-05-15T06:10:02.898Z,13.38
2023-05-15T06:12:30.242Z,12.80
2023-05-15T06:14:57.432Z,12.60
2023-05-15T06:17:24.652Z,12.50
2023-05-15T06:19:51.911Z,13.50
2023-05-15T06:22:19.166Z,11.55
2023-05-15T06:24:46.438Z,13.25
2023-05-15T06:27:13.659Z,13.90
2023-05-15T06:29:40.858Z,12.48
2023-05-15T06:32:08.295Z,11.20
2023-05-15T06:34:35.579Z,12.43
2023-05-15T06:37:02.798Z,11.85
2023-05-15T06:39:29.988Z,12.25
2023-05-15T06:42:01.391Z,11.98
2023-05-15T06:44:31.343Z,12.00
2023-05-15T06:46:58.984Z,10.73
2023-05-15T06:49:26.869Z,11.00
2023-05-15T06:51:55.133Z,11.25
2023-05-15T06:54:22.367Z,9.88
2023-05-15T06:56:49.934Z,10.15
2023-05-15T06:59:17.189Z,9.23
2023-05-15T07:01:44.720Z,10.88
2023-05-15T07:04:15.080Z,10.02
2023-05-15T07:06:42.509Z,9.88
2023-05-15T07:09:09.799Z,9.38
2023-05-15T07:11:38.946Z,9.70
2023-05-15T07:14:06.965Z,10.20
2023-05-15T07:16:34.239Z,10.05
2023-05-15T07:19:01.722Z,10.98
2023-05-15T07:21:29.112Z,10.65
2023-05-15T07:23:56.321Z,10.23
2023-05-15T07:26:34.495Z,9.70
2023-05-15T07:29:05.963Z,8.90
2023-05-15T07:31:33.791Z,9.57
2023-05-15T07:34:01.186Z,8.50
2023-05-15T07:36:28.516Z,9.25
2023-05-15T07:38:55.803Z,9.25
2023-05-15T07:41:23.041Z,10.95
2023-05-15T07:43:50.284Z,9.13
2023-05-15T07:46:17.561Z,9.60
2023-05-15T07:48:44.905Z,8.32
2023-05-15T07:51:12.200Z,9.57
2023-05-15T07:53:39.460Z,10.20
2023-05-15T07:56:06.848Z,8.95
2023-05-15T07:58:37.137Z,9.43
2023-05-15T08:01:05.171Z,8.68
2023-05-15T08:03:32.742Z,8.20
2023-05-15T08:06:00.318Z,7.90
2023-05-15T08:08:27.608Z,9.05
2023-05-15T08:10:54.989Z,9.00
2023-05-15T08:13:22.237Z,8.05
2023-05-15T08:15:49.590Z,8.80
2023-05-15T08:18:16.781Z,8.40
2023-05-15T08:20:44.022Z,9.32
2023-05-15T08:23:12.378Z,7.55
2023-05-15T08:25:39.676Z,8.13
2023-05-15T08:28:06.937Z,8.50
2023-05-15T08:30:34.273Z,8.32
2023-05-15T08:33:01.503Z,8.13
2023-05-15T08:35:29.049Z,8.10
2023-05-15T08:37:58.557Z,7.90
2023-05-15T08:40:38.331Z,8.30
2023-05-15T08:43:15.273Z,7.40
2023-05-15T08:45:43.764Z,7.22
2023-05-15T08:48:20.461Z,7.95
2023-05-15T08:50:48.906Z,7.57
2023-05-15T08:53:16.263Z,7.28
2023-05-15T08:55:43.908Z,7.25
2023-05-15T08:58:11.720Z,7.60
2023-05-15T09:00:39.014Z,6.80
2023-05-15T09:03:06.874Z,8.00
2023-05-15T09:05:34.980Z,7.28
2023-05-15T09:08:05.620Z,7.70
2023-05-15T09:10:33.792Z,7.18
2023-05-15T09:13:02.664Z,7.15
2023-05-15T09:15:30.702Z,7.75
2023-05-15T09:17:58.685Z,7.97
2023-05-15T09:20:33.133Z,7.28
2023-05-15T09:23:02.085Z,7.50
2023-05-15T09:25:38.419Z,6.82
2023-05-15T09:28:06.943Z,6.50
2023-05-15T09:30:34.898Z,6.57
2023-05-15T09:33:03.873Z,7.10
2023-05-15T09:35:32.154Z,7.35
2023-05-15T09:38:00.789Z,8.02
2023-05-15T09:40:32.254Z,7.47
2023-05-15T09:42:59.935Z,7.85
2023-05-15T09:45:29.958Z,8.18
2023-05-15T09:48:00.485Z,6.97
2023-05-15T09:50:39.516Z,7.15
2023-05-15T09:53:07.224Z,8.00
2023-05-15T09:55:36.441Z,7.40
2023-05-15T09:58:16.830Z,7.20
2023-05-15T10:00:47.856Z,7.55
2023-05-15T10:03:20.926Z,6.78
2023-05-15T10:05:48.633Z,6.50
2023-05-15T10:08:25.937Z,5.70
2023-05-15T10:10:54.367Z,4.97
2023-05-15T10:13:23.032Z,4.75
2023-05-15T10:15:51.461Z,4.35
2023-05-15T10:18:21.882Z,4.57
2023-05-15T10:20:49.619Z,4.32
2023-05-15T10:23:18.516Z,4.13
2023-05-15T10:26:03.130Z,5.38
2023-05-15T10:28:31.892Z,5.10
2023-05-15T10:31:02.024Z,5.03
2023-05-15T10:33:30.270Z,5.43
2023-05-15T10:35:59.252Z,4.97
2023-05-15T10:38:26.715Z,5.10
2023-05-15T10:41:09.124Z,5.65
2023-05-15T10:43:44.338Z,5.63
2023-05-15T10:46:12.181Z,5.05
2023-05-15T10:48:40.349Z,5.55
2023-05-15T10:51:15.926Z,5.57
2023-05-15T10:53:44.781Z,5.75
2023-05-15T10:56:17.302Z,5.85
2023-05-15T10:58:49.139Z,5.72
2023-05-15T11:04:17.581Z,5.93
2023-05-15T11:06:46.952Z,5.78
2023-05-15T11:09:26.596Z,5.97
2023-05-15T11:11:57.164Z,6.43
2023-05-15T11:14:25.903Z,5.80
2023-05-15T11:16:53.492Z,6.38
2023-05-15T11:19:48.820Z,5.90
2023-05-15T11:22:17.402Z,6.43
2023-05-15T11:24:59.175Z,6.80
2023-05-15T11:27:32.327Z,7.18
2023-05-15T11:30:15.890Z,6.53
2023-05-15T11:32:47.136Z,6.70
2023-05-15T11:35:21.856Z,7.28
2023-05-15T11:37:51.022Z,7.22
2023-05-15T11:40:29.324Z,6.70
2023-05-15T11:43:07.894Z,6.63
2023-05-15T11:45:38.425Z,6.40
2023-05-15T11:48:08.188Z,7.35
2023-05-15T11:50:35.901Z,6.53
2023-05-15T11:53:04.727Z,7.38
2023-05-15T11:55:33.959Z,7.13
2023-05-15T11:58:02.105Z,6.60
2023-05-15T12:00:29.509Z,6.80
2023-05-15T12:02:57.374Z,6.80
2023-05-15T12:05:24.618Z,6.70
2023-05-15T12:07:52.447Z,6.90
2023-05-15T12:10:19.755Z,6.60
2023-05-15T12:12:47.388Z,6.53
2023-05-15T12:15:16.943Z,7.03
2023-05-15T12:17:46.410Z,6.80
2023-05-15T12:20:19.842Z,7.03
2023-05-15T12:22:47.186Z,6.90
2023-05-15T12:25:15.999Z,6.75
2023-05-15T12:27:43.786Z,7.22
2023-05-15T12:30:13.834Z,7.10
2023-05-15T12:32:41.380Z,7.53
2023-05-15T12:35:10.685Z,7.63
2023-05-15T12:37:38.833Z,8.63
2023-05-15T12:40:14.560Z,9.05
2023-05-15T12:42:43.725Z,9.05
2023-05-15T12:45:18.812Z,8.73
2023-05-15T12:47:48.221Z,8.02
2023-05-15T12:50:22.823Z,8.10
2023-05-15T12:52:50.002Z,8.13
2023-05-15T12:55:28.368Z,7.97
2023-05-15T12:58:02.401Z,8.23
2023-05-15T13:00:30.726Z,8.00
2023-05-15T13:02:58.743Z,7.40
2023-05-15T13:05:27.085Z,7.93
2023-05-15T13:07:54.873Z,7.40
2023-05-15T13:10:23.834Z,7.53
2023-05-15T13:12:53.220Z,6.97
2023-05-15T13:15:26.198Z,6.90
2023-05-15T13:18:14.494Z,7.28
2023-05-15T13:20:43.717Z,7.00
2023-05-15T13:23:13.480Z,7.25
2023-05-15T13:25:40.896Z,6.75
2023-05-15T13:28:11.152Z,7.30
2023-05-15T13:30:42.249Z,7.20
2023-05-15T13:33:11.837Z,6.78
2023-05-15T13:35:39.862Z,6.80
2023-05-15T13:38:10.434Z,7.10
2023-05-15T13:40:39.148Z,6.97
2023-05-15T13:43:09.000Z,6.85
2023-05-15T13:45:36.780Z,7.13
2023-05-15T13:48:04.425Z,7.00
2023-05-15T13:50:31.694Z,7.47
2023-05-15T13:52:58.880Z,7.72
2023-05-15T13:55:26.290Z,7.30
2023-05-15T13:57:53.653Z,7.05
2023-05-15T14:00:21.471Z,7.22
2023-05-15T14:02:48.808Z,7.00
2023-05-15T14:05:17.072Z,6.93
2023-05-15T14:07:44.728Z,7.10
2023-05-15T14:10:12.015Z,6.95
2023-05-15T14:12:39.763Z,7.40
2023-05-15T14:15:07.420Z,7.13
2023-05-15T14:17:35.325Z,7.13
2023-05-15T14:20:02.895Z,6.72
2023-05-15T14:22:30.566Z,6.72
2023-05-15T14:24:57.841Z,6.97
2023-05-15T14:27:25.108Z,7.30
2023-05-15T14:29:52.425Z,6.80
2023-05-15T14:32:19.864Z,6.50
2023-05-15T14:34:47.144Z,6.65
2023-05-15T14:37:14.407Z,7.20
2023-05-15T14:39:41.717Z,7.20
2023-05-15T14:42:09.076Z,6.70
2023-05-15T14:44:36.367Z,7.05
2023-05-15T14:47:12.770Z,7.15
2023-05-15T14:49:40.851Z,7.20
2023-05-15T14:52:09.485Z,7.57
2023-05-15T14:54:37.951Z,7.85
2023-05-15T14:57:05.498Z,7.47
2023-05-15T14:59:32.829Z,7.28
2023-05-15T15:02:00.186Z,7.03
2023-05-15T15:04:29.138Z,7.38
2023-05-15T15:06:59.060Z,6.85
2023-05-15T15:09:28.308Z,6.72
2023-05-15T15:11:56.427Z,6.40
2023-05-15T15:14:23.652Z,6.47
2023-05-15T15:16:51.006Z,6.43
2023-05-15T15:19:20.174Z,6.57
2023-05-15T15:21:48.168Z,6.93
2023-05-15T15:24:16.713Z,7.47
2023-05-15T15:26:43.904Z,6.72
2023-05-15T15:29:11.125Z,6.85
2023-05-15T15:31:38.357Z,6.93
2023-05-15T15:34:08.418Z,6.97
2023-05-15T15:36:38.681Z,6.60
2023-05-15T15:39:05.907Z,6.50
2023-05-15T15:41:33.162Z,6.70
2023-05-15T15:44:01.385Z,6.63
2023-05-15T15:46:28.721Z,7.03
2023-05-15T15:48:56.056Z,6.68
2023-05-15T15:51:23.295Z,6.93
2023-05-15T15:53:50.579Z,6.43
2023-05-15T15:56:17.962Z,6.57
2023-05-15T15:58:45.209Z,6.80
2023-05-15T16:01:12.544Z,6.90
2023-05-15T16:03:39.856Z,6.95
2023-05-15T16:06:07.099Z,6.93
2023-05-15T16:08:34.339Z,7.63
2023-05-15T16:11:01.664Z,7.38
2023-05-15T16:13:29.076Z,7.40
2023-05-15T16:15:56.881Z,6.70
2023-05-15T16:18:24.250Z,7.68
2023-05-15T16:20:51.514Z,7.75
2023-05-15T16:23:19.916Z,8.15
2023-05-15T16:25:47.218Z,8.45
2023-05-15T16:28:14.812Z,8.30
2023-05-15T16:30:49.050Z,8.80
2023-05-15T16:33:18.333Z,7.82
2023-05-15T16:35:46.740Z,8.23
2023-05-15T16:38:14.691Z,7.93
2023-05-15T16:40:42.301Z,7.93
2023-05-15T16:43:09.852Z,8.90
2023-05-15T16:45:37.171Z,7.80
2023-05-15T16:48:04.749Z,7.90
2023-05-15T16:50:32.930Z,8.60
2023-05-15T16:53:00.125Z,7.95
2023-05-15T16:55:27.537Z,8.30
2023-05-15T16:57:54.760Z,8.00
2023-05-15T17:00:22.567Z,7.40
2023-05-15T17:02:50.773Z,7.22
2023-05-15T17:05:18.152Z,8.20
2023-05-15T17:07:45.405Z,7.32
2023-05-15T17:10:13.235Z,7.90
2023-05-15T17:12:40.741Z,7.25
2023-05-15T17:15:08.916Z,7.22
2023-05-15T17:17:36.347Z,7.15
2023-05-15T17:20:04.345Z,6.60
2023-05-15T17:22:31.647Z,7.07
2023-05-15T17:24:58.909Z,7.32
2023-05-15T17:27:26.362Z,7.18
2023-05-15T17:29:53.710Z,7.05
2023-05-15T17:32:21.588Z,7.40
2023-05-15T17:34:50.271Z,7.20
2023-05-15T17:37:17.649Z,7.25
2023-05-15T17:39:44.962Z,7.97
2023-05-15T17:42:12.204Z,6.93
2023-05-15T17:44:39.631Z,7.80
2023-05-15T17:47:07.834Z,7.20
2023-05-15T17:49:35.091Z,7.47
2023-05-15T17:52:02.435Z,7.30
2023-05-15T17:54:29.689Z,7.78
2023-05-15T17:56:56.902Z,7.07
2023-05-15T17:59:24.179Z,7.15
2023-05-15T18:01:52.248Z,7.43
2023-05-15T18:04:19.485Z,7.40
2023-05-15T18:06:46.829Z,7.70
2023-05-15T18:09:14.105Z,7.25
2023-05-15T18:11:41.520Z,7.55
2023-05-15T18:14:09.727Z,7.50
2023-05-15T18:16:37.507Z,7.03
2023-05-15T18:19:05.021Z,7.35
2023-05-15T18:21:32.399Z,7.45
2023-05-15T18:23:59.678Z,7.03
2023-05-15T18:26:29.181Z,7.28
2023-05-15T18:28:57.012Z,6.43
2023-05-15T18:31:24.322Z,6.05
2023-05-15T18:33:51.500Z,6.38
2023-05-15T18:36:18.829Z,5.40
2023-05-15T18:38:46.111Z,5.80
2023-05-15T18:41:13.315Z,5.80
2023-05-15T18:43:40.612Z,5.40
2023-05-15T18:46:08.059Z,5.40
2023-05-15T18:48:35.549Z,5.80
2023-05-15T18:51:02.784Z,5.55
2023-05-15T18:53:29.978Z,5.88
2023-05-15T18:55:57.187Z,4.90
2023-05-15T18:58:24.622Z,4.70
2023-05-15T19:00:51.976Z,5.20
2023-05-15T19:03:20.830Z,4.93
2023-05-15T19:05:48.175Z,5.28
2023-05-15T19:08:15.377Z,5.35
2023-05-15T19:10:50.193Z,4.82
2023-05-15T19:13:17.518Z,4.93
2023-05-15T19:15:51.872Z,4.85
2023-05-15T19:18:19.264Z,4.80
2023-05-15T19:20:52.281Z,4.97
2023-05-15T19:23:21.026Z,4.97
2023-05-15T19:25:48.374Z,5.15
2023-05-15T19:28:15.641Z,4.93
2023-05-15T19:30:42.930Z,4.75
2023-05-15T19:33:10.317Z,4.80
2023-05-15T19:35:37.855Z,4.75
2023-05-15T19:38:05.355Z,5.18
2023-05-15T19:40:32.757Z,5.20
2023-05-15T19:43:00.065Z,5.32
2023-05-15T19:45:27.399Z,5.80
2023-05-15T19:47:54.809Z,5.75
2023-05-15T19:50:22.121Z,6.30
2023-05-15T19:52:49.396Z,6.60
2023-05-15T19:55:16.755Z,6.03
2023-05-15T19:57:45.109Z,5.75
2023-05-15T20:00:13.105Z,5.80
2023-05-15T20:02:41.415Z,6.10
2023-05-15T20:05:09.448Z,6.25
2023-05-15T20:07:37.283Z,6.32
2023-05-15T20:10:05.450Z,6.35
2023-05-15T20:12:32.698Z,6.68
2023-05-15T20:14:59.974Z,8.55
2023-05-15T20:17:27.548Z,10.88
2023-05-15T20:19:54.859Z,8.95
2023-05-15T20:22:22.084Z,7.93
2023-05-15T20:24:50.129Z,7.28
2023-05-15T20:27:17.446Z,6.82
2023-05-15T20:29:45.362Z,7.38
2023-05-15T20:32:13.828Z,7.57
2023-05-15T20:34:46.001Z,6.55
2023-05-15T20:37:13.557Z,6.50
2023-05-15T20:39:40.943Z,6.40
2023-05-15T20:42:08.285Z,6.13
2023-05-15T20:44:38.474Z,6.63
2023-05-15T20:47:06.722Z,6.70
2023-05-15T20:49:33.939Z,6.47
2023-05-15T20:52:01.295Z,6.25
2023-05-15T20:54:28.534Z,5.88
2023-05-15T20:56:55.868Z,6.10
2023-05-15T20:59:23.083Z,6.28
2023-05-15T21:01:50.899Z,6.15
2023-05-15T21:04:18.180Z,6.00
2023-05-15T21:06:45.789Z,5.82
2023-05-15T21:09:15.731Z,5.47
2023-05-15T21:11:43.095Z,6.15
2023-05-15T21:14:10.501Z,6.68
2023-05-15T21:16:37.813Z,6.10
2023-05-15T21:19:05.218Z,6.65
2023-05-15T21:21:32.529Z,6.43
2023-05-15T21:24:02.486Z,7.13
2023-05-15T21:26:30.405Z,6.70
2023-05-15T21:28:59.233Z,7.15
2023-05-15T21:31:27.552Z,7.07
2023-05-15T21:33:54.986Z,7.50
2023-05-15T21:36:22.778Z,7.70
2023-05-15T21:38:50.018Z,8.13
2023-05-15T21:41:17.595Z,8.18
2023-05-15T21:43:44.924Z,8.15
2023-05-15T21:46:12.176Z,8.13
2023-05-15T21:48:39.513Z,8.65
2023-05-15T21:51:06.869Z,8.15
2023-05-15T21:53:34.246Z,9.52
2023-05-15T21:56:02.486Z,8.73
2023-05-15T21:58:30.108Z,7.78
2023-05-15T22:00:57.343Z,8.18
2023-05-15T22:03:24.816Z,8.95
2023-05-15T22:05:52.967Z,9.23
2023-05-15T22:08:21.305Z,10.02
2023-05-15T22:10:49.351Z,10.18
2023-05-15T22:13:16.852Z,9.60
2023-05-15T22:15:44.383Z,10.35
2023-05-15T22:18:13.162Z,10.07
2023-05-15T22:20:40.503Z,10.77
2023-05-15T22:23:08.651Z,10.45
2023-05-15T22:25:36.158Z,10.02
2023-05-15T22:28:03.525Z,9.48
2023-05-15T22:30:30.753Z,9.32
2023-05-15T22:32:58.034Z,10.32
2023-05-15T22:35:25.634Z,9.13
2023-05-15T22:37:53.239Z,10.13
2023-05-15T22:40:20.678Z,10.57
2023-05-15T22:42:50.436Z,9.98
2023-05-15T22:45:18.661Z,10.38
2023-05-15T22:47:46.372Z,9.15
2023-05-15T22:50:14.324Z,10.07
2023-05-15T22:52:41.585Z,10.18
2023-05-15T22:55:10.457Z,9.82
2023-05-15T22:57:37.759Z,9.98
2023-05-15T23:00:07.177Z,9.32
2023-05-15T23:02:34.892Z,10.40
2023-05-15T23:05:02.268Z,10.23
2023-05-15T23:07:29.494Z,10.88
2023-05-15T23:09:57.013Z,10.63
2023-05-15T23:12:24.272Z,10.32
2023-05-15T23:14:51.510Z,10.35
2023-05-15T23:17:18.800Z,9.95
2023-05-15T23:19:46.656Z,10.30
2023-05-15T23:22:13.871Z,9.45
2023-05-15T23:24:41.316Z,9.98
2023-05-15T23:27:08.568Z,9.90
2023-05-15T23:29:36.261Z,9.85
2023-05-15T23:32:03.570Z,9.80
2023-05-15T23:34:30.858Z,9.32
2023-05-15T23:36:58.056Z,11.23
2023-05-15T23:39:25.343Z,10.70
2023-05-15T23:41:52.526Z,11.90
2023-05-15T23:44:19.745Z,10.43
2023-05-15T23:46:47.220Z,11.35
2023-05-15T23:49:14.764Z,11.95
2023-05-15T23:51:43.786Z,10.40
2023-05-15T23:54:11.707Z,10.75
2023-05-15T23:56:38.909Z,10.10
2023-05-15T23:59:06.175Z,11.20
